Time;durP1;ratioP1;P1;durP2;ratioP2;P2;SDS_P1;SDS_P2;PMS_P1;PMS_P2;Temp;Humidity;BMP_temperature;BMP_pressure;BME280_temperature;BME280_humidity;BME280_pressure;Samples;Min_cycle;Max_cycle;Signal;HPM_P1;HPM_P2
2023/12/31 00:01:48;;;;;;;0.10;0.10;;;;;;;;;;4994697;28;20053;-85
2023/12/31 00:04:14;;;;;;;0.10;0.10;;;;;;;;;;4994466;28;20081;-85
2023/12/31 00:06:40;;;;;;;0.10;0.10;;;;;;;;;;4994530;28;20405;-85
2023/12/31 00:09:06;;;;;;;0.10;0.10;;;;;;;;;;5010648;28;20104;-85
2023/12/31 00:11:32;;;;;;;0.10;0.10;;;;;;;;;;4995048;28;20049;-85
2023/12/31 00:13:58;;;;;;;0.10;0.10;;;;;;;;;;4998252;28;20095;-85
2023/12/31 00:16:24;;;;;;;0.10;0.10;;;;;;;;;;4997926;28;20045;-85
2023/12/31 00:18:50;;;;;;;0.10;0.10;;;;;;;;;;4997895;28;20041;-85
2023/12/31 00:21:16;;;;;;;0.28;0.28;;;;;;;;;;5014055;28;20081;-85
2023/12/31 00:23:42;;;;;;;0.10;0.10;;;;;;;;;;4981544;28;20176;-85
2023/12/31 00:26:08;;;;;;;0.10;0.10;;;;;;;;;;4981670;28;20041;-85
2023/12/31 00:28:34;;;;;;;0.20;0.20;;;;;;;;;;4997688;28;20092;-86
2023/12/31 00:31:00;;;;;;;0.10;0.10;;;;;;;;;;4997222;28;20061;-86
2023/12/31 00:33:26;;;;;;;0.10;0.10;;;;;;;;;;5013861;28;20108;-85
2023/12/31 00:35:52;;;;;;;0.10;0.10;;;;;;;;;;4981275;28;20038;-85
2023/12/31 00:38:18;;;;;;;0.10;0.10;;;;;;;;;;4997507;28;20042;-85
2023/12/31 00:40:44;;;;;;;0.10;0.10;;;;;;;;;;5013655;28;20038;-85
2023/12/31 00:43:10;;;;;;;0.10;0.10;;;;;;;;;;4997577;28;20042;-85
2023/12/31 00:45:36;;;;;;;0.10;0.10;;;;;;;;;;4997422;28;20048;-86
2023/12/31 00:48:03;;;;;;;0.10;0.10;;;;;;;;;;4981144;28;20403;-86
2023/12/31 00:50:29;;;;;;;0.15;0.15;;;;;;;;;;5013459;28;20129;-85
2023/12/31 00:52:55;;;;;;;0.20;0.20;;;;;;;;;;4997175;28;20038;-86
2023/12/31 00:55:21;;;;;;;0.10;0.10;;;;;;;;;;4997649;28;20061;-85
2023/12/31 00:57:47;;;;;;;0.10;0.10;;;;;;;;;;5013487;28;20038;-86
2023/12/31 01:00:13;;;;;;;0.10;0.10;;;;;;;;;;5013489;28;20061;-85
2023/12/31 01:02:39;;;;;;;0.10;0.10;;;;;;;;;;5013443;28;20539;-86
2023/12/31 01:05:05;;;;;;;0.10;0.10;;;;;;;;;;4996998;28;20050;-86
2023/12/31 01:07:31;;;;;;;0.10;0.10;;;;;;;;;;4996873;28;20125;-86
2023/12/31 01:09:57;;;;;;;0.10;0.10;;;;;;;;;;4996929;28;20180;-86
2023/12/31 01:12:23;;;;;;;0.10;0.10;;;;;;;;;;5013144;28;20139;-85
2023/12/31 01:14:49;;;;;;;0.10;0.10;;;;;;;;;;5013256;28;20046;-85
2023/12/31 01:17:15;;;;;;;0.10;0.10;;;;;;;;;;5013168;28;20045;-85
2023/12/31 01:19:41;;;;;;;0.10;0.10;;;;;;;;;;5013357;28;20417;-86
2023/12/31 01:22:07;;;;;;;0.10;0.10;;;;;;;;;;5012828;28;20099;-85
2023/12/31 01:24:33;;;;;;;1.42;0.20;;;;;;;;;;5011903;28;20421;-85
2023/12/31 01:26:59;;;;;;;0.10;0.10;;;;;;;;;;4996759;28;20415;-85
2023/12/31 01:29:25;;;;;;;0.10;0.10;;;;;;;;;;5012762;28;20046;-86
2023/12/31 01:31:51;;;;;;;0.10;0.10;;;;;;;;;;4996511;28;20099;-85
2023/12/31 01:34:17;;;;;;;0.10;0.10;;;;;;;;;;4996544;28;20429;-85
2023/12/31 01:36:43;;;;;;;0.10;0.10;;;;;;;;;;5012774;28;20065;-85
2023/12/31 01:39:09;;;;;;;0.30;0.30;;;;;;;;;;4980559;28;20041;-85
2023/12/31 01:41:35;;;;;;;0.10;0.10;;;;;;;;;;5012536;28;20327;-84
2023/12/31 01:44:02;;;;;;;0.20;0.20;;;;;;;;;;5012739;28;20041;-86
2023/12/31 01:46:28;;;;;;;0.10;0.10;;;;;;;;;;5012490;28;20049;-85
2023/12/31 01:48:57;;;;;;;0.10;0.10;;;;;;;;;;4996318;28;20053;-85
2023/12/31 01:51:24;;;;;;;0.10;0.10;;;;;;;;;;4996046;28;20463;-85
2023/12/31 01:53:50;;;;;;;0.20;0.20;;;;;;;;;;4996245;28;20041;-85
2023/12/31 01:56:16;;;;;;;0.20;0.20;;;;;;;;;;5012547;28;20460;-85
2023/12/31 01:58:42;;;;;;;0.10;0.10;;;;;;;;;;4996224;28;20049;-85
2023/12/31 02:01:08;;;;;;;0.10;0.10;;;;;;;;;;5012259;28;20046;-85
2023/12/31 02:03:34;;;;;;;0.10;0.10;;;;;;;;;;4996013;28;20044;-85
2023/12/31 02:06:00;;;;;;;0.10;0.10;;;;;;;;;;4995886;28;20085;-84
2023/12/31 02:08:26;;;;;;;0.10;0.10;;;;;;;;;;5012107;28;20374;-85
2023/12/31 02:10:52;;;;;;;0.10;0.10;;;;;;;;;;5011965;28;20049;-85
2023/12/31 02:13:18;;;;;;;0.10;0.10;;;;;;;;;;4995828;28;20045;-85
2023/12/31 02:15:44;;;;;;;0.10;0.10;;;;;;;;;;5012113;28;20375;-85
2023/12/31 02:18:10;;;;;;;0.20;0.20;;;;;;;;;;4995792;28;20040;-85
2023/12/31 02:20:36;;;;;;;0.10;0.10;;;;;;;;;;4995496;28;20088;-85
2023/12/31 02:23:03;;;;;;;0.10;0.10;;;;;;;;;;4979721;28;20555;-83
2023/12/31 02:25:29;;;;;;;0.10;0.10;;;;;;;;;;4995675;28;20046;-84
2023/12/31 02:27:55;;;;;;;0.10;0.10;;;;;;;;;;5012048;28;20382;-84
2023/12/31 02:30:22;;;;;;;0.10;0.10;;;;;;;;;;4994975;28;20094;-85
2023/12/31 02:32:48;;;;;;;0.10;0.10;;;;;;;;;;4978661;28;20046;-85
2023/12/31 02:35:14;;;;;;;0.20;0.20;;;;;;;;;;4994446;28;20095;-85
2023/12/31 02:37:40;;;;;;;0.20;0.20;;;;;;;;;;4994595;28;20042;-85
2023/12/31 02:40:06;;;;;;;0.10;0.10;;;;;;;;;;4994534;28;20182;-85
2023/12/31 02:42:32;;;;;;;0.10;0.10;;;;;;;;;;4994607;28;20042;-85
2023/12/31 02:44:58;;;;;;;0.10;0.10;;;;;;;;;;4994594;28;20087;-85
2023/12/31 02:47:24;;;;;;;0.20;0.20;;;;;;;;;;4994721;28;20046;-85
2023/12/31 02:49:50;;;;;;;0.10;0.10;;;;;;;;;;4994351;28;20053;-86
2023/12/31 02:52:16;;;;;;;0.10;0.10;;;;;;;;;;4994441;28;20045;-85
2023/12/31 02:54:43;;;;;;;0.10;0.10;;;;;;;;;;4978262;28;20042;-85
2023/12/31 02:57:09;;;;;;;0.20;0.20;;;;;;;;;;4994333;28;20037;-86
2023/12/31 02:59:35;;;;;;;0.10;0.10;;;;;;;;;;5010498;28;20045;-85
2023/12/31 03:02:01;;;;;;;0.10;0.10;;;;;;;;;;5010477;28;20064;-85
2023/12/31 03:04:27;;;;;;;0.10;0.10;;;;;;;;;;5010517;28;20064;-86
2023/12/31 03:06:53;;;;;;;0.10;0.10;;;;;;;;;;4994530;28;20165;-85
2023/12/31 03:09:21;;;;;;;0.20;0.20;;;;;;;;;;4994328;28;20042;-85
2023/12/31 03:11:47;;;;;;;0.10;0.10;;;;;;;;;;4994451;28;20050;-86
2023/12/31 03:14:13;;;;;;;0.10;0.10;;;;;;;;;;4994046;28;20560;-85
2023/12/31 03:16:44;;;;;;;0.10;0.10;;;;;;;;;;4977830;28;20044;-86
2023/12/31 03:19:10;;;;;;;0.10;0.10;;;;;;;;;;4977930;28;20042;-85
2023/12/31 03:21:36;;;;;;;0.10;0.10;;;;;;;;;;4993852;28;20093;-84
2023/12/31 03:24:02;;;;;;;0.10;0.10;;;;;;;;;;4993939;28;20548;-86
2023/12/31 03:26:28;;;;;;;0.10;0.10;;;;;;;;;;4993838;28;20050;-86
2023/12/31 03:28:54;;;;;;;0.20;0.20;;;;;;;;;;4993894;28;20133;-85
2023/12/31 03:31:20;;;;;;;0.10;0.10;;;;;;;;;;4972473;28;1100964;-84
2023/12/31 03:33:46;;;;;;;0.10;0.10;;;;;;;;;;4994768;28;20125;-84
2023/12/31 03:36:12;;;;;;;0.10;0.10;;;;;;;;;;5011040;28;20121;-85
2023/12/31 03:38:38;;;;;;;0.10;0.10;;;;;;;;;;4994564;28;20456;-84
2023/12/31 03:41:04;;;;;;;0.10;0.10;;;;;;;;;;4994593;28;20121;-85
2023/12/31 03:43:31;;;;;;;0.20;0.20;;;;;;;;;;5010879;28;20041;-84
2023/12/31 03:45:57;;;;;;;0.10;0.10;;;;;;;;;;4994568;28;20038;-85
2023/12/31 03:48:23;;;;;;;1.08;0.30;;;;;;;;;;4998647;28;20156;-84
2023/12/31 03:50:49;;;;;;;0.10;0.10;;;;;;;;;;4982626;28;20029;-84
2023/12/31 03:53:15;;;;;;;0.30;0.30;;;;;;;;;;4998381;28;20073;-84
2023/12/31 03:55:42;;;;;;;0.10;0.10;;;;;;;;;;4998411;28;20485;-84
2023/12/31 03:58:08;;;;;;;0.10;0.10;;;;;;;;;;4982214;28;20120;-85
2023/12/31 04:00:34;;;;;;;0.10;0.10;;;;;;;;;;5014379;28;20042;-84
2023/12/31 04:03:00;;;;;;;0.20;0.20;;;;;;;;;;4998279;28;20374;-85
2023/12/31 04:05:26;;;;;;;0.10;0.10;;;;;;;;;;4982055;28;20481;-84
2023/12/31 04:07:52;;;;;;;0.10;0.10;;;;;;;;;;5014518;28;20049;-84
2023/12/31 04:10:18;;;;;;;0.10;0.10;;;;;;;;;;4981842;28;20076;-83
2023/12/31 04:12:44;;;;;;;0.10;0.10;;;;;;;;;;4998056;28;20042;-85
2023/12/31 04:15:10;;;;;;;0.10;0.10;;;;;;;;;;4981777;28;20038;-85
2023/12/31 04:17:36;;;;;;;0.10;0.10;;;;;;;;;;5014323;28;20042;-84
2023/12/31 04:20:02;;;;;;;0.10;0.10;;;;;;;;;;5014089;28;20044;-84
2023/12/31 04:22:28;;;;;;;0.10;0.10;;;;;;;;;;4981619;28;20072;-84
2023/12/31 04:24:55;;;;;;;0.10;0.10;;;;;;;;;;4998049;28;20041;-85
2023/12/31 04:27:21;;;;;;;0.10;0.10;;;;;;;;;;5014255;28;20477;-85
2023/12/31 04:29:47;;;;;;;0.10;0.10;;;;;;;;;;5013653;28;20525;-86
2023/12/31 04:32:13;;;;;;;0.10;0.10;;;;;;;;;;5013928;28;20129;-85
2023/12/31 04:34:39;;;;;;;0.10;0.10;;;;;;;;;;4981444;28;20117;-85
2023/12/31 04:37:04;;;;;;;0.10;0.10;;;;;;;;;;4997649;28;20456;-85
2023/12/31 04:39:30;;;;;;;0.10;0.10;;;;;;;;;;4997508;28;20038;-85
2023/12/31 04:41:56;;;;;;;3.85;0.95;;;;;;;;;;4997450;28;20448;-86
2023/12/31 04:44:22;;;;;;;0.10;0.10;;;;;;;;;;4997528;28;20132;-85
2023/12/31 04:46:48;;;;;;;0.10;0.10;;;;;;;;;;4997498;28;20412;-84
2023/12/31 04:49:15;;;;;;;0.10;0.10;;;;;;;;;;4997390;28;20041;-85
2023/12/31 04:51:41;;;;;;;0.10;0.10;;;;;;;;;;4980995;28;20041;-86
2023/12/31 04:54:07;;;;;;;0.10;0.10;;;;;;;;;;5013617;28;20037;-85
2023/12/31 04:56:33;;;;;;;0.20;0.20;;;;;;;;;;4997428;28;20034;-84
2023/12/31 04:58:59;;;;;;;0.10;0.10;;;;;;;;;;5013114;28;20044;-85
2023/12/31 05:01:32;;;;;;;0.20;0.20;;;;;;;;;;4997273;28;20049;-84
2023/12/31 05:03:58;;;;;;;0.20;0.20;;;;;;;;;;4981759;28;20053;-85
2023/12/31 05:06:24;;;;;;;0.10;0.10;;;;;;;;;;4997294;28;20455;-84
2023/12/31 05:08:50;;;;;;;0.10;0.10;;;;;;;;;;4997060;28;20077;-84
2023/12/31 05:11:16;;;;;;;0.20;0.20;;;;;;;;;;4996900;28;20084;-84
2023/12/31 05:13:42;;;;;;;0.10;0.10;;;;;;;;;;4997230;28;20029;-85
2023/12/31 05:16:09;;;;;;;0.10;0.10;;;;;;;;;;5013126;28;20110;-85
2023/12/31 05:18:35;;;;;;;0.20;0.20;;;;;;;;;;4980643;28;20057;-84
2023/12/31 05:21:01;;;;;;;0.17;0.17;;;;;;;;;;5013056;28;20060;-84
2023/12/31 05:23:27;;;;;;;0.10;0.10;;;;;;;;;;4997265;28;20374;-85
2023/12/31 05:25:53;;;;;;;0.10;0.10;;;;;;;;;;4997038;28;20034;-85
2023/12/31 05:28:19;;;;;;;0.10;0.10;;;;;;;;;;4996723;28;20044;-85
2023/12/31 05:30:45;;;;;;;0.20;0.20;;;;;;;;;;4996387;28;20413;-85
2023/12/31 05:33:11;;;;;;;0.10;0.10;;;;;;;;;;4996516;28;20050;-85
2023/12/31 05:35:37;;;;;;;0.10;0.10;;;;;;;;;;5012709;28;20092;-85
2023/12/31 05:38:03;;;;;;;0.10;0.10;;;;;;;;;;4996697;28;20037;-85
2023/12/31 05:40:29;;;;;;;0.10;0.10;;;;;;;;;;5012564;28;20540;-85
2023/12/31 05:42:56;;;;;;;0.30;0.30;;;;;;;;;;4996620;28;20041;-86
2023/12/31 05:45:22;;;;;;;0.20;0.20;;;;;;;;;;4980664;28;20278;-90
2023/12/31 05:47:48;;;;;;;0.30;0.30;;;;;;;;;;4980153;28;20052;-84
2023/12/31 05:50:14;;;;;;;0.30;0.30;;;;;;;;;;4996262;28;20042;-85
2023/12/31 05:52:40;;;;;;;0.10;0.10;;;;;;;;;;4980181;28;20088;-84
2023/12/31 05:55:06;;;;;;;0.20;0.20;;;;;;;;;;4996002;28;20046;-85
2023/12/31 05:57:32;;;;;;;0.10;0.10;;;;;;;;;;4996208;28;20496;-84
2023/12/31 05:59:59;;;;;;;0.15;0.15;;;;;;;;;;4996080;28;20042;-85
2023/12/31 06:02:25;;;;;;;0.20;0.20;;;;;;;;;;4979972;28;20405;-85
2023/12/31 06:04:52;;;;;;;0.35;0.20;;;;;;;;;;5012225;28;20103;-85
2023/12/31 06:07:18;;;;;;;0.20;0.20;;;;;;;;;;4979625;28;20046;-84
2023/12/31 06:09:44;;;;;;;0.10;0.10;;;;;;;;;;4995185;28;20397;-84
2023/12/31 06:12:10;;;;;;;0.75;0.75;;;;;;;;;;4995825;28;20539;-85
2023/12/31 06:14:36;;;;;;;0.10;0.10;;;;;;;;;;4995784;28;20121;-85
2023/12/31 06:17:02;;;;;;;0.10;0.10;;;;;;;;;;4995735;28;20116;-84
2023/12/31 06:19:28;;;;;;;0.20;0.20;;;;;;;;;;4979848;28;20042;-84
2023/12/31 06:21:54;;;;;;;0.10;0.10;;;;;;;;;;5011942;28;20048;-84
2023/12/31 06:24:20;;;;;;;0.22;0.22;;;;;;;;;;5011832;28;20041;-84
2023/12/31 06:26:46;;;;;;;0.10;0.10;;;;;;;;;;4995636;28;20050;-85
2023/12/31 06:29:12;;;;;;;0.13;0.13;;;;;;;;;;5011844;28;20481;-85
2023/12/31 06:31:38;;;;;;;0.10;0.10;;;;;;;;;;4995248;28;20498;-84
2023/12/31 06:34:04;;;;;;;0.52;0.30;;;;;;;;;;5011717;28;20045;-84
2023/12/31 06:36:30;;;;;;;0.10;0.10;;;;;;;;;;4995834;28;20045;-83
2023/12/31 06:38:56;;;;;;;0.10;0.10;;;;;;;;;;4995662;28;20397;-83
2023/12/31 06:41:22;;;;;;;0.10;0.10;;;;;;;;;;4995187;28;20041;-84
2023/12/31 06:43:48;;;;;;;0.10;0.10;;;;;;;;;;4995337;28;20042;-84
2023/12/31 06:46:14;;;;;;;0.10;0.10;;;;;;;;;;5011587;28;20100;-85
2023/12/31 06:48:40;;;;;;;0.15;0.15;;;;;;;;;;4995316;28;20045;-84
2023/12/31 06:51:06;;;;;;;0.10;0.10;;;;;;;;;;4995005;28;20042;-85
2023/12/31 06:53:35;;;;;;;0.10;0.10;;;;;;;;;;4995248;28;20034;-84
2023/12/31 06:56:05;;;;;;;0.20;0.20;;;;;;;;;;4995698;28;20433;-85
2023/12/31 06:58:31;;;;;;;0.10;0.10;;;;;;;;;;4995288;28;20053;-84
2023/12/31 07:00:57;;;;;;;0.20;0.20;;;;;;;;;;5011352;28;20110;-85
2023/12/31 07:03:23;;;;;;;0.20;0.20;;;;;;;;;;5011337;28;20545;-85
2023/12/31 07:05:49;;;;;;;0.20;0.20;;;;;;;;;;4995027;28;20476;-84
2023/12/31 07:08:15;;;;;;;0.20;0.20;;;;;;;;;;4994991;28;20077;-85
2023/12/31 07:10:41;;;;;;;0.20;0.20;;;;;;;;;;4995012;28;20038;-85
2023/12/31 07:13:07;;;;;;;0.10;0.10;;;;;;;;;;4994910;28;20038;-85
2023/12/31 07:15:34;;;;;;;0.15;0.15;;;;;;;;;;4994974;28;20046;-85
2023/12/31 07:18:00;;;;;;;0.20;0.20;;;;;;;;;;4995106;28;20049;-84
2023/12/31 07:20:26;;;;;;;0.10;0.10;;;;;;;;;;4994077;28;20049;-85
2023/12/31 07:22:53;;;;;;;0.10;0.10;;;;;;;;;;4978100;28;20038;-85
2023/12/31 07:25:20;;;;;;;0.47;0.47;;;;;;;;;;5011331;28;20045;-85
2023/12/31 07:27:46;;;;;;;0.10;0.10;;;;;;;;;;4978753;28;20108;-85
2023/12/31 07:30:12;;;;;;;0.10;0.10;;;;;;;;;;4994611;28;20057;-84
2023/12/31 07:32:38;;;;;;;0.10;0.10;;;;;;;;;;4986788;28;20042;-85
2023/12/31 07:35:05;;;;;;;0.20;0.20;;;;;;;;;;4994913;28;20038;-85
2023/12/31 07:37:31;;;;;;;0.20;0.20;;;;;;;;;;5010586;28;20042;-84
2023/12/31 07:39:57;;;;;;;0.10;0.10;;;;;;;;;;5010761;28;20049;-85
2023/12/31 07:42:24;;;;;;;0.20;0.20;;;;;;;;;;4994723;28;20508;-85
2023/12/31 07:44:50;;;;;;;0.10;0.10;;;;;;;;;;4978184;28;20042;-84
2023/12/31 07:47:16;;;;;;;0.10;0.10;;;;;;;;;;5010717;28;20493;-84
2023/12/31 07:49:42;;;;;;;0.20;0.20;;;;;;;;;;4978343;28;20042;-84
2023/12/31 07:52:08;;;;;;;0.10;0.10;;;;;;;;;;4994409;28;20045;-85
2023/12/31 07:54:34;;;;;;;0.10;0.10;;;;;;;;;;4994499;28;20085;-85
2023/12/31 07:57:00;;;;;;;0.10;0.10;;;;;;;;;;5010569;28;20073;-85
2023/12/31 07:59:27;;;;;;;0.20;0.20;;;;;;;;;;4994478;28;20065;-85
2023/12/31 08:01:53;;;;;;;0.10;0.10;;;;;;;;;;4994321;28;20042;-84
2023/12/31 08:04:19;;;;;;;0.10;0.10;;;;;;;;;;4994486;28;20045;-85
2023/12/31 08:06:45;;;;;;;0.13;0.13;;;;;;;;;;4994417;28;20096;-84
2023/12/31 08:09:13;;;;;;;0.95;0.95;;;;;;;;;;4979598;28;20042;-85
2023/12/31 08:11:39;;;;;;;0.10;0.10;;;;;;;;;;4958923;28;20569;-84
2023/12/31 08:14:05;;;;;;;0.20;0.20;;;;;;;;;;4991237;28;20042;-85
2023/12/31 08:16:31;;;;;;;0.10;0.10;;;;;;;;;;4990924;28;20069;-85
2023/12/31 08:18:57;;;;;;;0.28;0.28;;;;;;;;;;4974663;28;20042;-84
2023/12/31 08:21:23;;;;;;;0.20;0.20;;;;;;;;;;4990878;28;20053;-84
2023/12/31 08:23:49;;;;;;;0.10;0.10;;;;;;;;;;4974828;28;20042;-84
2023/12/31 08:26:15;;;;;;;0.10;0.10;;;;;;;;;;4974677;28;20050;-85
2023/12/31 08:28:41;;;;;;;0.20;0.20;;;;;;;;;;4974807;28;20125;-83
2023/12/31 08:31:34;;;;;;;0.20;0.20;;;;;;;;;;4974510;28;20105;-84
2023/12/31 08:34:00;;;;;;;0.10;0.10;;;;;;;;;;4992373;28;20062;-84
2023/12/31 08:36:26;;;;;;;0.10;0.10;;;;;;;;;;4994264;28;20043;-84
2023/12/31 08:38:52;;;;;;;0.10;0.10;;;;;;;;;;4993308;28;20374;-86
2023/12/31 08:41:18;;;;;;;0.10;0.10;;;;;;;;;;4994279;28;20512;-86
2023/12/31 08:43:45;;;;;;;0.10;0.10;;;;;;;;;;4994072;28;20059;-85
2023/12/31 08:46:11;;;;;;;0.10;0.10;;;;;;;;;;4978139;28;20386;-87
2023/12/31 08:48:37;;;;;;;0.20;0.20;;;;;;;;;;4961992;28;20495;-86
2023/12/31 08:51:04;;;;;;;0.10;0.10;;;;;;;;;;4978100;28;20124;-93
2023/12/31 08:53:32;;;;;;;0.10;0.10;;;;;;;;;;4978524;28;20042;-89
2023/12/31 08:55:58;;;;;;;0.20;0.20;;;;;;;;;;4961913;28;20126;-85
2023/12/31 08:58:24;;;;;;;0.10;0.10;;;;;;;;;;4961392;28;20125;-85
2023/12/31 09:00:51;;;;;;;0.10;0.10;;;;;;;;;;4993679;28;20142;-86
2023/12/31 09:03:17;;;;;;;0.10;0.10;;;;;;;;;;4978174;28;20414;-84
2023/12/31 09:05:43;;;;;;;0.13;0.13;;;;;;;;;;4977540;28;20042;-84
2023/12/31 09:08:09;;;;;;;0.10;0.10;;;;;;;;;;4993714;28;20049;-85
2023/12/31 09:10:35;;;;;;;0.10;0.10;;;;;;;;;;4977500;28;20413;-85
2023/12/31 09:13:02;;;;;;;0.10;0.10;;;;;;;;;;4977376;28;20039;-85
2023/12/31 09:15:29;;;;;;;0.20;0.20;;;;;;;;;;4961540;28;20053;-86
2023/12/31 09:17:55;;;;;;;0.10;0.10;;;;;;;;;;4977534;28;20046;-87
2023/12/31 09:20:22;;;;;;;0.10;0.10;;;;;;;;;;4976289;28;20058;-87
2023/12/31 09:22:52;;;;;;;0.43;0.43;;;;;;;;;;4977264;28;20042;-84
2023/12/31 09:25:18;;;;;;;0.10;0.10;;;;;;;;;;4992993;28;20054;-85
2023/12/31 09:27:44;;;;;;;0.10;0.10;;;;;;;;;;4993293;28;20047;-89
2023/12/31 09:30:10;;;;;;;0.10;0.10;;;;;;;;;;4977285;28;20046;-84
2023/12/31 09:32:36;;;;;;;0.20;0.20;;;;;;;;;;4977219;28;20046;-83
2023/12/31 09:35:02;;;;;;;0.70;0.50;;;;;;;;;;4961054;28;20040;-84
2023/12/31 09:37:29;;;;;;;0.15;0.15;;;;;;;;;;4993124;28;20046;-84
2023/12/31 09:39:55;;;;;;;0.20;0.20;;;;;;;;;;4993028;28;20269;-84
2023/12/31 09:42:29;;;;;;;0.38;0.38;;;;;;;;;;4960867;28;20042;-85
2023/12/31 09:44:56;;;;;;;0.10;0.10;;;;;;;;;;4992043;28;20050;-84
2023/12/31 09:47:22;;;;;;;0.10;0.10;;;;;;;;;;4992861;28;20054;-84
2023/12/31 09:49:48;;;;;;;0.17;0.17;;;;;;;;;;4960443;28;20184;-87
2023/12/31 09:52:14;;;;;;;0.10;0.10;;;;;;;;;;4976484;28;20402;-84
2023/12/31 09:54:41;;;;;;;0.10;0.10;;;;;;;;;;4976614;28;20065;-85
2023/12/31 09:57:07;;;;;;;0.10;0.10;;;;;;;;;;4976764;28;20104;-85
2023/12/31 09:59:33;;;;;;;0.10;0.10;;;;;;;;;;4992546;28;20123;-85
2023/12/31 10:02:00;;;;;;;0.10;0.10;;;;;;;;;;4976451;28;20099;-86
2023/12/31 10:04:27;;;;;;;0.15;0.15;;;;;;;;;;4960215;28;20486;-84
2023/12/31 10:06:53;;;;;;;0.10;0.10;;;;;;;;;;4976419;28;20042;-84
2023/12/31 10:09:20;;;;;;;0.20;0.20;;;;;;;;;;4992211;28;20391;-85
2023/12/31 10:11:46;;;;;;;0.10;0.10;;;;;;;;;;4960008;28;20169;-84
2023/12/31 10:14:12;;;;;;;0.20;0.20;;;;;;;;;;4960389;28;20069;-87
2023/12/31 10:16:43;;;;;;;0.20;0.20;;;;;;;;;;4992529;28;20080;-87
2023/12/31 10:19:09;;;;;;;0.10;0.10;;;;;;;;;;4977241;28;20046;-87
2023/12/31 10:21:35;;;;;;;0.10;0.10;;;;;;;;;;4975995;28;20081;-86
2023/12/31 10:24:01;;;;;;;0.20;0.20;;;;;;;;;;4992030;28;20074;-86
2023/12/31 10:26:28;;;;;;;0.20;0.20;;;;;;;;;;4992235;28;20038;-88
2023/12/31 10:28:54;;;;;;;0.20;0.20;;;;;;;;;;4976394;28;20053;-94
2023/12/31 10:31:21;;;;;;;0.30;0.30;;;;;;;;;;4960620;28;20057;-87
2023/12/31 10:33:47;;;;;;;0.10;0.10;;;;;;;;;;4976020;28;20050;-87
2023/12/31 10:36:13;;;;;;;0.32;0.32;;;;;;;;;;4960200;28;20084;-88
2023/12/31 10:38:46;;;;;;;0.20;0.20;;;;;;;;;;4975789;28;20042;-87
2023/12/31 10:41:16;;;;;;;0.30;0.30;;;;;;;;;;4976282;28;20042;-88
2023/12/31 10:43:42;;;;;;;0.20;0.20;;;;;;;;;;4976525;28;20050;-87
2023/12/31 10:46:08;;;;;;;0.40;0.40;;;;;;;;;;4976005;28;20034;-89
2023/12/31 10:48:34;;;;;;;0.15;0.15;;;;;;;;;;4967834;28;20096;-90
2023/12/31 10:51:01;;;;;;;0.63;0.52;;;;;;;;;;4964353;28;20034;-89
2023/12/31 10:53:28;;;;;;;0.10;0.10;;;;;;;;;;4978270;28;20038;-87
2023/12/31 10:55:54;;;;;;;0.10;0.10;;;;;;;;;;4961508;28;20042;-89
2023/12/31 10:58:20;;;;;;;0.10;0.10;;;;;;;;;;4979099;28;20041;-90
2023/12/31 11:00:46;;;;;;;0.20;0.20;;;;;;;;;;4982928;28;20042;-90
2023/12/31 11:03:13;;;;;;;0.20;0.20;;;;;;;;;;4967649;28;20092;-91
2023/12/31 11:05:39;;;;;;;0.10;0.10;;;;;;;;;;4961251;28;20046;-89
2023/12/31 11:08:05;;;;;;;0.20;0.20;;;;;;;;;;4976148;28;20125;-90
2023/12/31 11:10:32;;;;;;;0.10;0.10;;;;;;;;;;4960267;28;20042;-91
2023/12/31 11:12:58;;;;;;;0.30;0.30;;;;;;;;;;4961419;28;20081;-89
2023/12/31 11:15:24;;;;;;;0.43;0.30;;;;;;;;;;4976238;28;20046;-90
2023/12/31 11:18:08;;;;;;;0.22;0.22;;;;;;;;;;4975729;28;20034;-91
2023/12/31 11:20:35;;;;;;;0.10;0.10;;;;;;;;;;4978772;28;20038;-93
2023/12/31 11:23:25;;;;;;;0.20;0.20;;;;;;;;;;4997970;28;20096;-90
2023/12/31 11:25:51;;;;;;;0.10;0.10;;;;;;;;;;4959753;28;20206;-88
2023/12/31 11:28:17;;;;;;;0.10;0.10;;;;;;;;;;4975516;28;20168;-89
2023/12/31 11:30:44;;;;;;;0.20;0.20;;;;;;;;;;4959249;28;20058;-89
2023/12/31 11:33:10;;;;;;;0.20;0.20;;;;;;;;;;4959376;28;20042;-89
2023/12/31 11:35:43;;;;;;;0.20;0.20;;;;;;;;;;4975298;28;20092;-90
2023/12/31 11:38:09;;;;;;;0.10;0.10;;;;;;;;;;4959646;28;20065;-88
2023/12/31 11:40:36;;;;;;;0.13;0.13;;;;;;;;;;4975573;28;20053;-91
2023/12/31 11:43:23;;;;;;;0.10;0.10;;;;;;;;;;4959135;28;20042;-91
2023/12/31 11:45:49;;;;;;;0.20;0.20;;;;;;;;;;4975696;28;20087;-91
2023/12/31 11:48:24;;;;;;;0.10;0.10;;;;;;;;;;4975804;28;20042;-90
2023/12/31 11:50:51;;;;;;;0.20;0.20;;;;;;;;;;4975217;28;20038;-90
2023/12/31 11:53:17;;;;;;;0.10;0.10;;;;;;;;;;4959202;28;20042;-90
2023/12/31 11:55:47;;;;;;;0.17;0.17;;;;;;;;;;4959317;28;20035;-96
2023/12/31 11:58:14;;;;;;;0.20;0.20;;;;;;;;;;4960549;28;20073;-88
2023/12/31 12:00:40;;;;;;;0.10;0.10;;;;;;;;;;4959630;28;20074;-88
2023/12/31 12:03:07;;;;;;;0.10;0.10;;;;;;;;;;4991214;28;20486;-89
2023/12/31 12:05:33;;;;;;;0.10;0.10;;;;;;;;;;4974330;28;20125;-87
2023/12/31 12:08:03;;;;;;;0.20;0.20;;;;;;;;;;4976286;28;20045;-87
2023/12/31 12:10:30;;;;;;;0.10;0.10;;;;;;;;;;4979002;28;20046;-87
2023/12/31 12:12:57;;;;;;;0.20;0.20;;;;;;;;;;4978444;28;20166;-87
2023/12/31 12:15:23;;;;;;;0.10;0.10;;;;;;;;;;4962399;28;20126;-88
2023/12/31 12:17:49;;;;;;;0.10;0.10;;;;;;;;;;4963901;28;20172;-87
2023/12/31 12:20:15;;;;;;;0.47;0.40;;;;;;;;;;4978966;28;20101;-88
2023/12/31 12:22:41;;;;;;;0.10;0.10;;;;;;;;;;4994964;28;20074;-87
2023/12/31 12:25:09;;;;;;;0.10;0.10;;;;;;;;;;4994988;28;20045;-88
2023/12/31 12:27:35;;;;;;;0.20;0.20;;;;;;;;;;5008225;28;20448;-88
2023/12/31 12:30:01;;;;;;;0.10;0.10;;;;;;;;;;4997461;28;20456;-90
2023/12/31 12:32:27;;;;;;;0.10;0.10;;;;;;;;;;5000122;28;20085;-89
2023/12/31 12:34:53;;;;;;;0.10;0.10;;;;;;;;;;4981644;28;20044;-88
2023/12/31 12:37:19;;;;;;;0.40;0.40;;;;;;;;;;4997825;28;20124;-89
2023/12/31 12:39:45;;;;;;;0.45;0.20;;;;;;;;;;4982014;28;20468;-87
2023/12/31 12:42:11;;;;;;;0.10;0.10;;;;;;;;;;4981856;28;20041;-89
2023/12/31 12:44:38;;;;;;;0.20;0.20;;;;;;;;;;4981266;28;20128;-89
2023/12/31 12:47:04;;;;;;;0.10;0.10;;;;;;;;;;4981419;28;20077;-89
2023/12/31 12:49:30;;;;;;;0.10;0.10;;;;;;;;;;4997514;28;20049;-89
2023/12/31 12:51:56;;;;;;;0.10;0.10;;;;;;;;;;4982348;28;20041;-91
2023/12/31 12:54:22;;;;;;;0.10;0.10;;;;;;;;;;4982077;28;20393;-91
2023/12/31 12:56:48;;;;;;;0.45;0.45;;;;;;;;;;4981939;28;20505;-90
2023/12/31 12:59:14;;;;;;;0.10;0.10;;;;;;;;;;4981389;28;20128;-90
2023/12/31 13:01:40;;;;;;;0.10;0.10;;;;;;;;;;4981283;28;20456;-91
2023/12/31 13:04:10;;;;;;;0.10;0.10;;;;;;;;;;4981336;28;20038;-90
2023/12/31 13:06:37;;;;;;;0.10;0.10;;;;;;;;;;4982201;28;20045;-94
2023/12/31 13:09:03;;;;;;;0.10;0.10;;;;;;;;;;4981807;28;20096;-91
2023/12/31 13:11:52;;;;;;;0.20;0.20;;;;;;;;;;4997270;28;20038;-92
2023/12/31 13:14:18;;;;;;;0.20;0.20;;;;;;;;;;4982103;28;20473;-90
2023/12/31 13:16:47;;;;;;;0.10;0.10;;;;;;;;;;4980817;28;20099;-90
2023/12/31 13:22:02;;;;;;;0.10;0.10;;;;;;;;;;4989988;28;20474;-92
2023/12/31 13:24:29;;;;;;;0.10;0.10;;;;;;;;;;4982797;28;20042;-91
2023/12/31 13:26:56;;;;;;;0.10;0.10;;;;;;;;;;4981017;28;20088;-93
2023/12/31 13:29:28;;;;;;;0.10;0.10;;;;;;;;;;4997999;28;20068;-93
2023/12/31 13:31:54;;;;;;;0.10;0.10;;;;;;;;;;4981482;28;20508;-93
2023/12/31 13:34:20;;;;;;;0.10;0.10;;;;;;;;;;4981882;28;20038;-92
2023/12/31 13:36:49;;;;;;;0.20;0.20;;;;;;;;;;4980975;28;20061;-93
2023/12/31 13:39:15;;;;;;;0.10;0.10;;;;;;;;;;4981476;28;20574;-92
2023/12/31 13:41:41;;;;;;;0.10;0.10;;;;;;;;;;4981257;28;20033;-93
2023/12/31 13:44:07;;;;;;;0.10;0.10;;;;;;;;;;4980840;28;20140;-89
2023/12/31 13:46:33;;;;;;;0.10;0.10;;;;;;;;;;4997274;28;20513;-93
2023/12/31 13:48:59;;;;;;;0.10;0.10;;;;;;;;;;4997329;28;20493;-91
2023/12/31 13:51:25;;;;;;;0.10;0.10;;;;;;;;;;4980906;28;20042;-91
2023/12/31 13:53:52;;;;;;;0.10;0.10;;;;;;;;;;4981006;28;20038;-91
2023/12/31 13:56:18;;;;;;;0.10;0.10;;;;;;;;;;4996467;28;20038;-90
2023/12/31 13:58:44;;;;;;;0.10;0.10;;;;;;;;;;4997023;28;20037;-91
2023/12/31 14:01:10;;;;;;;0.10;0.10;;;;;;;;;;4980319;28;20042;-88
2023/12/31 14:03:36;;;;;;;0.10;0.10;;;;;;;;;;4980974;28;20440;-89
2023/12/31 14:06:04;;;;;;;0.10;0.10;;;;;;;;;;4997141;28;20037;-93
2023/12/31 14:08:30;;;;;;;0.10;0.10;;;;;;;;;;4983826;28;20052;-92
2023/12/31 14:11:10;;;;;;;0.10;0.10;;;;;;;;;;4981215;28;20056;-96
2023/12/31 14:13:36;;;;;;;0.10;0.10;;;;;;;;;;4997667;28;20100;-96
2023/12/31 14:16:06;;;;;;;0.10;0.10;;;;;;;;;;4982130;28;20110;-95
2023/12/31 14:18:32;;;;;;;0.10;0.10;;;;;;;;;;4980634;28;20446;-90
2023/12/31 14:20:58;;;;;;;0.43;0.43;;;;;;;;;;4980108;28;20121;-89
2023/12/31 14:23:24;;;;;;;0.10;0.10;;;;;;;;;;4980249;28;20038;-90
2023/12/31 14:25:50;;;;;;;0.10;0.10;;;;;;;;;;4980174;28;20037;-90
2023/12/31 14:28:17;;;;;;;0.10;0.10;;;;;;;;;;4979794;28;20049;-91
2023/12/31 14:30:43;;;;;;;0.10;0.10;;;;;;;;;;4979346;28;20050;-91
2023/12/31 14:33:10;;;;;;;0.10;0.10;;;;;;;;;;4979785;28;20046;-92
2023/12/31 14:35:37;;;;;;;0.10;0.10;;;;;;;;;;4995922;28;20125;-91
2023/12/31 14:38:04;;;;;;;0.10;0.10;;;;;;;;;;4980107;28;20038;-92
2023/12/31 14:40:39;;;;;;;0.10;0.10;;;;;;;;;;4980090;28;20077;-93
2023/12/31 14:43:06;;;;;;;0.10;0.10;;;;;;;;;;4982997;28;20489;-94